Terminal Aerodrome Forecast
Issued by NWS Knoxville/Tri Cities, TN

Home | Current Version | Previous Version | Text Only | Print | Product List | Glossary On
Versions: 1 2 3 4 5 6 7 8 9 10 11 12 13 14 15 16 17 18 19 20 21 22 23 24 25 26 27 28 29 30
000
FTUS44 KMRX 261120
TAFTRI
TAF
KTRI 261120Z 2612/2712 25008KT P6SM VCSH SCT022 BKN035
      WS020/20030KT
      TEMPO 2612/2614 4SM -SHRA BR SCT010 OVC022
     FM261500 26014G24KT P6SM VCSH SCT026 OVC035 WS020/25040KT
     FM261900 27016G28KT P6SM BKN050 WS020/28045KT
     FM270200 28010KT P6SM SCT060 WS020/32035KT
     FM270800 29005KT P6SM FEW150=

USA.gov is the U.S. government's official web portal to all federal, state and local government web resources and services.